Time;durP1;ratioP1;P1;durP2;ratioP2;P2;SDS_P1;SDS_P2;PMS_P1;PMS_P2;Temp;Humidity;BMP_temperature;BMP_pressure;BME280_temperature;BME280_humidity;BME280_pressure;Samples;Min_cycle;Max_cycle;Signal;HPM_P1;HPM_P2
2021/04/11 00:01:06;;;;;;;11.30;4.32;;;2.50;99.90;;;;;;5015265;28;20059;-66
2021/04/11 00:03:32;;;;;;;17.63;5.32;;;2.50;99.90;;;;;;5015453;28;20025;-67
2021/04/11 00:05:58;;;;;;;9.70;4.10;;;2.50;99.90;;;;;;5014338;28;20037;-66
2021/04/11 00:08:24;;;;;;;13.32;5.50;;;2.60;99.90;;;;;;5014126;28;20029;-66
2021/04/11 00:10:54;;;;;;;10.20;3.97;;;2.60;99.90;;;;;;5015183;28;20064;-66
2021/04/11 00:13:28;;;;;;;13.75;4.22;;;2.60;99.90;;;;;;5015767;28;20451;-66
2021/04/11 00:15:54;;;;;;;11.75;4.53;;;2.60;99.90;;;;;;5017547;28;20072;-67
2021/04/11 00:18:21;;;;;;;13.27;3.75;;;2.70;99.90;;;;;;5014491;28;20130;-66
2021/04/11 00:20:48;;;;;;;11.70;4.15;;;2.60;99.90;;;;;;5014512;28;20149;-66
2021/04/11 00:23:14;;;;;;;15.27;4.22;;;2.70;99.90;;;;;;5012011;28;20038;-66
2021/04/11 00:25:40;;;;;;;12.32;3.67;;;2.70;99.90;;;;;;5016171;28;20075;-66
2021/04/11 00:28:08;;;;;;;13.45;3.65;;;2.70;99.90;;;;;;5014660;28;20025;-66
2021/04/11 00:30:34;;;;;;;11.15;3.22;;;2.70;99.90;;;;;;5014249;28;20486;-66
2021/04/11 00:33:03;;;;;;;12.35;3.25;;;2.70;99.90;;;;;;5014861;28;20355;-66
2021/04/11 00:35:29;;;;;;;12.48;4.10;;;2.80;99.90;;;;;;5014774;28;20032;-66
2021/04/11 00:37:56;;;;;;;13.45;3.90;;;2.70;99.90;;;;;;5017757;28;20480;-66
2021/04/11 00:40:28;;;;;;;9.90;3.88;;;2.70;99.90;;;;;;5012779;28;20611;-67
2021/04/11 00:43:07;;;;;;;10.35;3.70;;;2.70;99.90;;;;;;5017028;28;20103;-66
2021/04/11 00:45:47;;;;;;;9.48;4.05;;;2.80;99.90;;;;;;5015481;28;20030;-67
2021/04/11 00:48:18;;;;;;;10.30;4.20;;;2.80;99.90;;;;;;5015994;28;20107;-66
2021/04/11 00:51:04;;;;;;;10.15;3.88;;;2.80;99.90;;;;;;5014890;28;20430;-66
2021/04/11 00:53:29;;;;;;;12.15;3.90;;;2.80;99.90;;;;;;5013182;28;20030;-67
2021/04/11 00:55:56;;;;;;;11.30;3.55;;;2.70;99.90;;;;;;5016175;28;20055;-66
2021/04/11 00:58:24;;;;;;;12.43;3.70;;;2.70;99.90;;;;;;5014044;28;20049;-66
2021/04/11 01:00:50;;;;;;;9.80;3.90;;;2.80;99.90;;;;;;5016155;28;20332;-66
2021/04/11 01:03:23;;;;;;;12.88;3.05;;;2.80;99.90;;;;;;5016552;28;20044;-66
2021/04/11 01:05:49;;;;;;;11.93;3.55;;;2.80;99.90;;;;;;5014675;28;20338;-65
2021/04/11 01:08:18;;;;;;;18.80;3.90;;;2.80;99.90;;;;;;5013845;28;20068;-66
2021/04/11 01:10:50;;;;;;;15.18;3.38;;;2.80;99.90;;;;;;5015796;28;20049;-66
2021/04/11 01:13:16;;;;;;;10.95;3.92;;;2.80;99.90;;;;;;5013848;28;20045;-66
2021/04/11 01:15:43;;;;;;;11.88;3.15;;;2.80;99.90;;;;;;5014955;28;20357;-66
2021/04/11 01:18:09;;;;;;;11.82;3.10;;;2.90;99.90;;;;;;5015785;28;20382;-66
2021/04/11 01:20:35;;;;;;;9.93;2.88;;;2.90;99.90;;;;;;5016002;28;20393;-66
2021/04/11 01:23:20;;;;;;;8.35;2.53;;;3.00;99.90;;;;;;5010440;28;20079;-66
2021/04/11 01:25:48;;;;;;;10.00;2.97;;;3.00;99.90;;;;;;5015324;28;20040;-66
2021/04/11 01:28:23;;;;;;;12.07;2.67;;;2.90;99.90;;;;;;5014143;28;20067;-66
2021/04/11 01:30:57;;;;;;;7.20;2.40;;;2.90;99.90;;;;;;5014178;28;20037;-66
2021/04/11 01:33:27;;;;;;;6.22;2.40;;;3.00;99.90;;;;;;5016603;28;20041;-66
2021/04/11 01:35:56;;;;;;;7.28;2.03;;;2.90;99.90;;;;;;5009854;28;20512;-67
2021/04/11 01:38:24;;;;;;;7.53;2.38;;;3.00;99.90;;;;;;5014258;28;20431;-66
2021/04/11 01:40:58;;;;;;;6.53;2.00;;;3.00;99.90;;;;;;5013044;28;20028;-66
2021/04/11 01:43:24;;;;;;;11.35;2.97;;;3.00;99.90;;;;;;5013540;28;20033;-66
2021/04/11 01:45:51;;;;;;;5.60;2.20;;;3.00;99.90;;;;;;5014615;28;20033;-67
2021/04/11 01:48:18;;;;;;;10.45;2.60;;;3.00;99.90;;;;;;5014192;28;20042;-67
2021/04/11 01:50:46;;;;;;;9.15;2.40;;;3.10;99.90;;;;;;5017173;28;20457;-67
2021/04/11 01:53:14;;;;;;;8.23;2.80;;;3.10;99.90;;;;;;5013252;28;20026;-66
2021/04/11 01:55:41;;;;;;;5.63;2.08;;;3.10;99.90;;;;;;5013047;28;20464;-67
2021/04/11 01:58:07;;;;;;;10.25;2.40;;;3.10;99.90;;;;;;5013329;28;20386;-66
2021/04/11 02:00:46;;;;;;;10.65;2.38;;;3.10;99.90;;;;;;5013839;28;20462;-66
2021/04/11 02:03:15;;;;;;;12.18;2.33;;;3.10;99.90;;;;;;5014403;28;20141;-66
2021/04/11 02:05:49;;;;;;;10.43;1.98;;;3.10;99.90;;;;;;5013821;28;20029;-66
2021/04/11 02:08:18;;;;;;;13.07;2.58;;;3.10;99.90;;;;;;5013695;28;20397;-66
2021/04/11 02:10:48;;;;;;;8.60;2.28;;;3.10;99.90;;;;;;5013828;28;20430;-65
2021/04/11 02:13:16;;;;;;;11.30;1.98;;;3.10;99.90;;;;;;5015162;28;20411;-66
2021/04/11 02:15:46;;;;;;;8.30;1.85;;;3.10;99.90;;;;;;5012400;28;20029;-66
2021/04/11 02:18:12;;;;;;;;;;;3.20;99.90;;;;;;5014750;28;20168;-66
2021/04/11 02:20:39;;;;;;;6.03;1.75;;;3.20;99.90;;;;;;5015479;28;19921;-66
2021/04/11 02:23:08;;;;;;;7.20;1.60;;;3.20;99.90;;;;;;5013835;28;20036;-65
2021/04/11 02:25:42;;;;;;;6.28;1.65;;;3.30;99.90;;;;;;5015545;28;20060;-66
2021/04/11 02:28:10;;;;;;;5.15;1.70;;;3.30;99.90;;;;;;5013391;28;20026;-66
2021/04/11 02:30:46;;;;;;;9.18;1.83;;;3.40;99.90;;;;;;5013208;28;20042;-66
2021/04/11 02:33:12;;;;;;;7.00;2.22;;;3.40;99.90;;;;;;5013596;28;20069;-67
2021/04/11 02:35:39;;;;;;;8.70;2.05;;;3.40;99.90;;;;;;5014236;28;20030;-66
2021/04/11 02:38:07;;;;;;;8.15;1.67;;;3.40;99.90;;;;;;5012182;28;20203;-66
2021/04/11 02:40:39;;;;;;;8.60;1.80;;;3.40;99.90;;;;;;5012987;28;20029;-66
2021/04/11 02:43:10;;;;;;;10.88;2.25;;;3.40;99.90;;;;;;5014491;28;20037;-65
2021/04/11 02:45:37;;;;;;;;;;;3.40;99.90;;;;;;5015614;28;20447;-65
2021/04/11 02:48:03;;;;;;;11.05;2.03;;;3.40;99.90;;;;;;5013442;28;20392;-65
2021/04/11 02:50:33;;;;;;;8.77;1.73;;;3.40;99.90;;;;;;5013333;28;20065;-66
2021/04/11 02:53:03;;;;;;;;;;;3.50;99.90;;;;;;5017040;28;20021;-66
2021/04/11 02:55:30;;;;;;;;;;;3.40;99.90;;;;;;5015946;28;20437;-65
2021/04/11 02:57:57;;;;;;;6.80;1.38;;;3.40;99.90;;;;;;5017551;28;20136;-66
2021/04/11 03:00:25;;;;;;;6.35;1.70;;;3.40;99.90;;;;;;5015603;28;20033;-65
2021/04/11 03:02:51;;;;;;;6.97;1.88;;;3.50;99.90;;;;;;5016872;28;20495;-66
2021/04/11 03:05:22;;;;;;;7.38;1.88;;;3.50;99.90;;;;;;5017764;28;20036;-65
2021/04/11 03:07:51;;;;;;;7.22;1.42;;;3.50;99.90;;;;;;5015010;28;20439;-66
2021/04/11 03:10:47;;;;;;;8.57;1.95;;;3.40;99.90;;;;;;5018692;28;20118;-65
2021/04/11 03:13:16;;;;;;;6.40;1.83;;;3.40;99.90;;;;;;5015534;28;20045;-66
2021/04/11 03:15:44;;;;;;;8.23;1.75;;;3.40;99.90;;;;;;5016441;28;20037;-65
2021/04/11 03:18:10;;;;;;;11.18;1.88;;;3.40;99.90;;;;;;5017096;28;20037;-66
2021/04/11 03:20:38;;;;;;;5.05;1.30;;;3.40;99.90;;;;;;5016884;28;20053;-65
2021/04/11 03:23:07;;;;;;;10.02;2.17;;;3.50;99.90;;;;;;5017483;28;20033;-66
2021/04/11 03:25:35;;;;;;;15.43;3.05;;;3.50;99.90;;;;;;5015985;28;20381;-66
2021/04/11 03:28:13;;;;;;;7.07;2.03;;;3.50;99.90;;;;;;5014189;28;20034;-65
2021/04/11 03:31:04;;;;;;;6.95;2.08;;;3.40;99.90;;;;;;5018364;28;20175;-66
2021/04/11 03:33:39;;;;;;;7.65;1.52;;;3.30;99.90;;;;;;5017020;28;20029;-66
2021/04/11 03:36:08;;;;;;;8.15;1.63;;;3.30;99.90;;;;;;5014318;28;20044;-68
2021/04/11 03:38:35;;;;;;;5.55;1.17;;;3.30;99.90;;;;;;5016533;28;20374;-67
2021/04/11 03:41:01;;;;;;;7.03;1.40;;;3.30;99.90;;;;;;5017897;28;20033;-67
2021/04/11 03:43:40;;;;;;;9.23;1.77;;;3.40;99.90;;;;;;5015693;28;20041;-67
2021/04/11 03:46:22;;;;;;;4.15;1.75;;;3.40;99.90;;;;;;5016490;28;20037;-67
2021/04/11 03:49:06;;;;;;;5.78;1.48;;;3.40;99.90;;;;;;5016297;28;20047;-68
2021/04/11 03:51:37;;;;;;;3.42;1.50;;;3.50;99.90;;;;;;5017061;28;20021;-68
2021/04/11 03:54:14;;;;;;;14.30;2.08;;;3.50;99.90;;;;;;5017096;28;20160;-67
2021/04/11 03:56:55;;;;;;;3.05;1.33;;;3.50;99.90;;;;;;5018048;28;20497;-68
2021/04/11 03:59:27;;;;;;;5.45;1.85;;;3.50;99.90;;;;;;5015972;28;20060;-67
2021/04/11 04:01:57;;;;;;;5.43;1.50;;;3.60;99.90;;;;;;5015675;28;20037;-68
2021/04/11 04:04:25;;;;;;;8.50;1.65;;;3.60;99.90;;;;;;5017966;28;20034;-67
2021/04/11 04:07:05;;;;;;;5.85;1.60;;;3.60;99.90;;;;;;5014941;28;20087;-68
2021/04/11 04:09:31;;;;;;;4.70;1.67;;;3.70;99.90;;;;;;5014956;28;20136;-68
2021/04/11 04:12:35;;;;;;;5.85;1.45;;;3.70;99.90;;;;;;5016018;28;20060;-67
2021/04/11 04:15:22;;;;;;;8.55;1.70;;;3.70;99.90;;;;;;5018660;28;20831;-67
2021/04/11 04:18:00;;;;;;;9.65;2.35;;;3.70;99.90;;;;;;5011885;28;20049;-68
2021/04/11 04:20:28;;;;;;;6.43;2.00;;;3.70;99.90;;;;;;5016646;28;20111;-68
2021/04/11 04:23:01;;;;;;;4.20;1.33;;;3.80;99.90;;;;;;5015013;28;20467;-67
2021/04/11 04:25:32;;;;;;;6.90;1.40;;;3.80;99.90;;;;;;5014230;28;20444;-67
2021/04/11 04:28:19;;;;;;;11.18;1.90;;;3.70;99.90;;;;;;5017270;28;20484;-67
2021/04/11 04:31:01;;;;;;;4.80;1.63;;;3.70;99.90;;;;;;5014650;28;20037;-67
2021/04/11 04:33:49;;;;;;;4.63;1.58;;;3.70;99.90;;;;;;5015008;28;20033;-66
2021/04/11 04:36:32;;;;;;;4.95;1.77;;;3.70;99.90;;;;;;5012546;28;20021;-66
2021/04/11 04:39:33;;;;;;;8.70;2.05;;;3.70;99.90;;;;;;5016312;28;20046;-66
2021/04/11 04:42:24;;;;;;;10.30;1.77;;;3.70;99.90;;;;;;5014448;28;20052;-66
2021/04/11 04:45:07;;;;;;;5.85;1.67;;;3.60;99.90;;;;;;5017085;28;20040;-65
2021/04/11 04:48:00;;;;;;;4.75;2.30;;;3.60;99.90;;;;;;5016854;28;20030;-65
2021/04/11 04:50:35;;;;;;;5.68;2.17;;;3.60;99.90;;;;;;5014624;28;20112;-66
2021/04/11 04:53:07;;;;;;;6.15;1.83;;;3.50;99.90;;;;;;5015180;28;20087;-66
2021/04/11 04:55:37;;;;;;;7.05;2.15;;;3.50;99.90;;;;;;5013711;28;20504;-65
2021/04/11 04:58:11;;;;;;;7.35;2.47;;;3.50;99.90;;;;;;5011756;28;20393;-65
2021/04/11 05:00:40;;;;;;;7.53;2.20;;;3.50;99.90;;;;;;5010829;28;20039;-65
2021/04/11 05:03:21;;;;;;;11.00;3.07;;;3.50;99.90;;;;;;5009576;28;20037;-64
2021/04/11 05:06:02;;;;;;;6.32;2.30;;;3.50;99.90;;;;;;5013999;28;20466;-64
2021/04/11 05:08:39;;;;;;;9.95;3.10;;;3.50;99.90;;;;;;5011001;28;20777;-65
2021/04/11 05:11:08;;;;;;;8.57;2.25;;;3.50;99.90;;;;;;5013753;28;20449;-64
2021/04/11 05:13:42;;;;;;;7.80;2.30;;;3.50;99.90;;;;;;5011403;28;20041;-63
2021/04/11 05:16:16;;;;;;;10.63;3.40;;;3.40;99.90;;;;;;5008284;28;20105;-63
2021/04/11 05:18:54;;;;;;;9.20;2.97;;;3.40;99.90;;;;;;5014913;28;20034;-64
2021/04/11 05:21:27;;;;;;;7.18;2.35;;;3.40;99.90;;;;;;5013688;28;20050;-64
2021/04/11 05:24:00;;;;;;;10.07;2.83;;;3.40;99.90;;;;;;5015065;28;20033;-64
2021/04/11 05:26:32;;;;;;;12.70;3.40;;;3.40;99.90;;;;;;5014286;28;20092;-64
2021/04/11 05:29:02;;;;;;;10.02;2.70;;;3.40;99.90;;;;;;5012585;28;20033;-64
2021/04/11 05:31:31;;;;;;;7.97;2.95;;;3.40;99.90;;;;;;5006333;28;20024;-64
2021/04/11 05:33:59;;;;;;;8.73;2.75;;;3.40;99.90;;;;;;5003233;28;20084;-64
2021/04/11 05:36:31;;;;;;;5.18;2.60;;;3.50;99.90;;;;;;5011246;28;20029;-64
2021/04/11 05:39:03;;;;;;;8.85;3.17;;;3.50;99.90;;;;;;5014069;28;20045;-64
2021/04/11 05:41:46;;;;;;;17.05;2.88;;;3.50;99.90;;;;;;5011110;28;20103;-65
2021/04/11 05:44:29;;;;;;;7.20;2.55;;;3.60;99.90;;;;;;5013319;28;20025;-65
2021/04/11 05:47:08;;;;;;;7.63;2.85;;;3.50;99.90;;;;;;5016040;28;20744;-64
2021/04/11 05:49:44;;;;;;;9.18;3.00;;;3.50;99.90;;;;;;5013596;28;20030;-64
2021/04/11 05:52:16;;;;;;;9.90;2.72;;;3.50;99.90;;;;;;5013958;28;20120;-65
2021/04/11 05:54:49;;;;;;;10.80;2.80;;;3.40;99.90;;;;;;5012415;28;20034;-64
2021/04/11 05:57:27;;;;;;;6.95;2.50;;;3.30;99.90;;;;;;5010719;28;20045;-65
2021/04/11 06:00:03;;;;;;;8.90;2.28;;;3.30;99.90;;;;;;5011106;28;20107;-64
2021/04/11 06:02:43;;;;;;;5.47;2.25;;;3.30;99.90;;;;;;5010689;28;20459;-65
2021/04/11 06:05:31;;;;;;;5.93;2.45;;;3.30;99.90;;;;;;5006391;28;20488;-64
2021/04/11 06:08:18;;;;;;;10.57;3.00;;;3.30;99.90;;;;;;5009958;28;20026;-65
2021/04/11 06:10:55;;;;;;;8.40;2.85;;;3.30;99.90;;;;;;5011445;28;20575;-65
2021/04/11 06:13:59;;;;;;;6.15;3.08;;;3.30;99.90;;;;;;5011635;28;20552;-65
2021/04/11 06:16:27;;;;;;;8.50;2.47;;;3.30;99.90;;;;;;5004170;28;20052;-65
2021/04/11 06:18:54;;;;;;;12.05;3.97;;;3.30;99.90;;;;;;5013311;28;20144;-66
2021/04/11 06:21:42;;;;;;;13.20;4.53;;;3.30;99.90;;;;;;5014938;28;20527;-66
2021/04/11 06:24:24;;;;;;;12.00;3.97;;;3.30;99.90;;;;;;5014686;28;20039;-67
2021/04/11 06:27:15;;;;;;;13.52;4.15;;;3.20;99.90;;;;;;5014717;28;20392;-66
2021/04/11 06:30:28;;;;;;;9.00;3.42;;;3.10;99.90;;;;;;5017886;28;20570;-66
2021/04/11 06:33:11;;;;;;;10.05;3.45;;;3.20;99.90;;;;;;5016556;28;20036;-66
2021/04/11 06:35:54;;;;;;;8.02;3.38;;;3.10;99.90;;;;;;5018646;28;20532;-66
2021/04/11 06:38:27;;;;;;;10.13;3.08;;;3.10;99.90;;;;;;5017966;28;20045;-66
2021/04/11 06:41:17;;;;;;;7.07;3.03;;;3.20;99.90;;;;;;5015480;28;20552;-65
2021/04/11 06:44:03;;;;;;;7.80;2.97;;;3.10;99.90;;;;;;5008852;28;20056;-65
2021/04/11 06:47:11;;;;;;;7.07;3.10;;;3.00;99.90;;;;;;5006997;28;20021;-66
2021/04/11 06:50:05;;;;;;;10.75;4.13;;;3.00;99.90;;;;;;5018608;28;20029;-66
2021/04/11 06:52:41;;;;;;;8.52;3.30;;;2.90;99.90;;;;;;5017101;28;20029;-66
2021/04/11 06:55:09;;;;;;;8.50;3.38;;;3.00;99.90;;;;;;5017366;28;20026;-66
2021/04/11 06:57:57;;;;;;;10.93;2.90;;;2.80;99.90;;;;;;5014849;28;20094;-66
2021/04/11 07:00:38;;;;;;;7.75;3.35;;;2.80;99.90;;;;;;5033312;28;20033;-65
2021/04/11 07:03:27;;;;;;;10.40;3.13;;;2.80;99.90;;;;;;5015853;28;20495;-66
2021/04/11 07:06:03;;;;;;;12.25;3.42;;;2.70;99.90;;;;;;5014121;28;20033;-65
2021/04/11 07:08:54;;;;;;;7.97;3.28;;;2.80;99.90;;;;;;5010238;28;20050;-65
2021/04/11 07:11:35;;;;;;;;;;;2.80;99.90;;;;;;5012981;28;20034;-66
2021/04/11 07:14:24;;;;;;;6.18;2.70;;;2.70;99.90;;;;;;5014088;28;20007;-65
2021/04/11 07:17:20;;;;;;;5.68;3.05;;;2.60;99.90;;;;;;5015112;28;20599;-65
2021/04/11 07:20:16;;;;;;;4.90;2.40;;;2.60;99.90;;;;;;5017129;28;20076;-64
2021/04/11 07:23:19;;;;;;;5.18;2.45;;;2.60;99.90;;;;;;5016601;28;20065;-65
2021/04/11 07:26:19;;;;;;;8.50;2.97;;;2.60;99.90;;;;;;5013637;28;20128;-65
2021/04/11 07:29:07;;;;;;;4.60;2.55;;;2.60;99.90;;;;;;5015623;28;20079;-65
2021/04/11 07:31:59;;;;;;;8.02;2.72;;;2.60;99.90;;;;;;5018195;28;20029;-65
2021/04/11 07:34:42;;;;;;;4.63;2.75;;;2.60;99.90;;;;;;5006331;28;20053;-65
2021/04/11 07:37:26;;;;;;;5.40;2.92;;;2.50;99.90;;;;;;5015565;28;20520;-65
2021/04/11 07:40:13;;;;;;;4.78;2.50;;;2.50;99.90;;;;;;5014783;28;20124;-66
2021/04/11 07:42:50;;;;;;;4.75;2.90;;;2.50;99.90;;;;;;5014772;28;20052;-65
2021/04/11 07:45:44;;;;;;;8.90;2.80;;;2.60;99.90;;;;;;5017049;28;20029;-65
2021/04/11 07:48:25;;;;;;;5.30;2.60;;;2.60;99.90;;;;;;5012834;28;20108;-66
2021/04/11 07:51:00;;;;;;;4.80;2.97;;;2.60;99.90;;;;;;5006893;28;20030;-65
2021/04/11 07:53:32;;;;;;;6.50;2.88;;;2.50;99.90;;;;;;5014608;28;20483;-66
2021/04/11 07:56:24;;;;;;;5.85;3.30;;;2.60;99.90;;;;;;5015526;28;20033;-65
2021/04/11 07:59:12;;;;;;;6.70;3.35;;;2.70;99.90;;;;;;5014309;28;20053;-66
2021/04/11 08:02:02;;;;;;;6.65;3.03;;;2.80;99.90;;;;;;5011359;28;20021;-66
2021/04/11 08:04:43;;;;;;;;;;;2.80;99.90;;;;;;5005363;28;21398;-66
2021/04/11 08:07:26;;;;;;;4.63;2.60;;;2.80;99.90;;;;;;5014669;28;20003;-66
2021/04/11 08:10:27;;;;;;;5.35;2.30;;;2.80;99.90;;;;;;5009098;28;20065;-65
2021/04/11 08:13:05;;;;;;;4.88;2.67;;;2.70;99.90;;;;;;5006951;28;20172;-65
2021/04/11 08:15:50;;;;;;;5.25;2.63;;;2.70;99.90;;;;;;5012576;28;20110;-65
2021/04/11 08:18:53;;;;;;;4.47;2.80;;;2.80;99.90;;;;;;5015530;28;20080;-66
2021/04/11 08:21:32;;;;;;;4.80;2.47;;;2.90;99.90;;;;;;5015091;28;20041;-65
2021/04/11 08:24:17;;;;;;;5.13;2.72;;;2.80;99.90;;;;;;5014019;28;20077;-65
2021/04/11 08:27:10;;;;;;;4.38;2.30;;;2.80;99.90;;;;;;5015712;28;20052;-65
2021/04/11 08:29:59;;;;;;;6.10;2.97;;;2.70;99.90;;;;;;5012018;28;20078;-65
2021/04/11 08:32:38;;;;;;;4.35;2.90;;;2.80;99.90;;;;;;5008680;28;20147;-65
2021/04/11 08:35:26;;;;;;;4.00;2.20;;;2.70;99.90;;;;;;5008733;28;20053;-65
2021/04/11 08:38:17;;;;;;;6.40;2.42;;;2.70;99.90;;;;;;5013802;28;20497;-65
2021/04/11 08:41:19;;;;;;;5.38;2.92;;;2.70;99.90;;;;;;5014384;28;20041;-65
2021/04/11 08:44:32;;;;;;;2.58;1.90;;;2.70;99.90;;;;;;5013410;28;20203;-66
2021/04/11 08:47:31;;;;;;;5.35;2.63;;;2.70;99.90;;;;;;5010675;28;20029;-66
2021/04/11 08:50:08;;;;;;;2.90;2.10;;;2.80;99.90;;;;;;5013005;28;20392;-65
2021/04/11 08:52:56;;;;;;;3.83;2.25;;;2.80;99.90;;;;;;5012442;28;20884;-65
2021/04/11 08:55:31;;;;;;;5.65;2.78;;;2.80;99.90;;;;;;5013122;28;20392;-66
2021/04/11 08:58:23;;;;;;;2.75;1.83;;;2.80;99.90;;;;;;5014673;28;20034;-66
2021/04/11 09:00:57;;;;;;;2.65;1.88;;;2.80;99.90;;;;;;5013492;28;20041;-66
2021/04/11 09:03:32;;;;;;;3.45;2.17;;;2.90;99.90;;;;;;5044201;28;20497;-66
2021/04/11 09:06:23;;;;;;;2.72;1.70;;;2.90;99.90;;;;;;5012703;28;20045;-67
2021/04/11 09:09:07;;;;;;;4.68;2.25;;;2.90;99.90;;;;;;5014354;28;20030;-66
2021/04/11 09:12:05;;;;;;;5.05;2.38;;;2.90;99.90;;;;;;5014460;28;20067;-67
2021/04/11 09:14:45;;;;;;;2.75;2.33;;;2.90;99.90;;;;;;5010779;28;20034;-67
2021/04/11 09:17:30;;;;;;;4.50;2.08;;;3.00;99.90;;;;;;5013367;28;20028;-67
2021/04/11 09:20:15;;;;;;;2.80;1.88;;;3.00;99.90;;;;;;5005249;28;20072;-67
2021/04/11 09:23:09;;;;;;;3.63;1.80;;;3.10;99.90;;;;;;5028649;28;20045;-66
2021/04/11 09:25:38;;;;;;;4.45;2.17;;;3.10;99.90;;;;;;5011380;28;20555;-67
2021/04/11 09:28:09;;;;;;;3.50;2.67;;;3.10;99.90;;;;;;5011120;28;20120;-67
2021/04/11 09:30:44;;;;;;;2.10;1.50;;;3.10;99.90;;;;;;5003088;28;20038;-66
2021/04/11 09:33:38;;;;;;;1.92;1.70;;;3.10;99.90;;;;;;5014207;28;20429;-66
2021/04/11 09:36:38;;;;;;;2.97;1.70;;;3.20;99.90;;;;;;5005905;28;20836;-66
2021/04/11 09:39:22;;;;;;;4.13;1.73;;;3.20;99.90;;;;;;5010057;28;20601;-66
2021/04/11 09:42:18;;;;;;;2.40;1.55;;;3.20;99.90;;;;;;4996981;28;20039;-66
2021/04/11 09:45:11;;;;;;;2.97;1.58;;;3.30;99.90;;;;;;5012551;28;20107;-66
2021/04/11 09:48:02;;;;;;;3.97;2.15;;;3.30;99.90;;;;;;5004502;28;20022;-67
2021/04/11 09:50:48;;;;;;;2.28;2.00;;;3.30;99.90;;;;;;5013661;28;20390;-66
2021/04/11 09:53:39;;;;;;;2.70;1.52;;;3.30;99.90;;;;;;5014554;28;20786;-66
2021/04/11 09:56:23;;;;;;;;;;;3.30;99.90;;;;;;5014821;28;20026;-66
2021/04/11 09:59:19;;;;;;;3.92;2.08;;;3.40;99.90;;;;;;5008084;28;20395;-66
2021/04/11 10:02:29;;;;;;;2.47;1.60;;;3.40;99.90;;;;;;5010186;28;20033;-66
2021/04/11 10:05:20;;;;;;;2.92;1.70;;;3.40;99.90;;;;;;5017799;28;20061;-66
2021/04/11 10:07:53;;;;;;;2.83;1.55;;;3.50;99.90;;;;;;5014225;28;20041;-65
2021/04/11 10:10:43;;;;;;;2.67;1.48;;;3.60;99.90;;;;;;5013973;28;20244;-66
2021/04/11 10:13:09;;;;;;;3.40;1.75;;;3.60;99.90;;;;;;5014089;28;20484;-66
2021/04/11 10:15:46;;;;;;;2.45;1.77;;;3.60;99.90;;;;;;5012445;28;20053;-66
2021/04/11 10:18:39;;;;;;;4.90;3.10;;;3.60;99.90;;;;;;5017112;28;20049;-66
2021/04/11 10:21:20;;;;;;;2.30;1.42;;;3.70;99.90;;;;;;5016901;28;20127;-66
2021/04/11 10:24:13;;;;;;;1.88;1.55;;;3.70;99.90;;;;;;5015974;28;20044;-66
2021/04/11 10:26:48;;;;;;;2.30;1.65;;;3.70;99.90;;;;;;5013360;28;20057;-67
2021/04/11 10:29:21;;;;;;;4.97;1.80;;;3.90;99.90;;;;;;5014863;28;20064;-65
2021/04/11 10:32:34;;;;;;;3.28;1.77;;;3.90;99.90;;;;;;5016600;28;20056;-65
2021/04/11 10:35:40;;;;;;;2.70;1.73;;;3.90;99.90;;;;;;5014624;28;20041;-66
2021/04/11 10:38:18;;;;;;;4.63;3.15;;;3.90;99.90;;;;;;5017351;28;20076;-66
2021/04/11 10:41:05;;;;;;;4.72;3.80;;;4.00;99.90;;;;;;5019288;28;20121;-65
2021/04/11 10:44:07;;;;;;;3.35;2.65;;;4.10;99.90;;;;;;5019370;28;20332;-65
2021/04/11 10:47:11;;;;;;;5.07;3.13;;;4.20;99.90;;;;;;5015088;28;20041;-65
2021/04/11 10:50:01;;;;;;;2.72;2.45;;;4.30;99.90;;;;;;5010430;28;20017;-66
2021/04/11 10:52:56;;;;;;;3.10;2.38;;;4.30;99.90;;;;;;5015626;28;20038;-65
2021/04/11 10:55:43;;;;;;;2.20;1.92;;;4.40;99.90;;;;;;5013023;28;20030;-65
2021/04/11 10:58:25;;;;;;;2.60;2.10;;;4.30;99.90;;;;;;5012922;28;20523;-65
2021/04/11 11:01:36;;;;;;;2.85;2.30;;;4.30;99.90;;;;;;5016958;28;20033;-65
2021/04/11 11:04:10;;;;;;;2.95;1.98;;;4.40;99.90;;;;;;5012639;28;20086;-65
2021/04/11 11:06:58;;;;;;;3.25;2.15;;;4.40;99.90;;;;;;5016500;28;20032;-65
2021/04/11 11:09:35;;;;;;;2.30;1.98;;;4.40;99.90;;;;;;5028555;28;20030;-66
2021/04/11 11:12:19;;;;;;;2.92;2.25;;;4.40;99.90;;;;;;5015108;28;20061;-65
2021/04/11 11:14:50;;;;;;;3.40;2.05;;;4.40;99.90;;;;;;5016080;28;20022;-65
2021/04/11 11:17:50;;;;;;;2.63;1.92;;;4.40;99.90;;;;;;5018001;28;20068;-65
2021/04/11 11:20:36;;;;;;;3.53;2.40;;;4.40;99.90;;;;;;5017400;28;20592;-65
2021/04/11 11:23:41;;;;;;;2.42;1.70;;;4.50;99.90;;;;;;5009344;28;20654;-68
2021/04/11 11:26:36;;;;;;;2.60;1.50;;;4.50;99.90;;;;;;5018006;28;20094;-72
2021/04/11 11:29:27;;;;;;;3.53;1.70;;;4.40;99.90;;;;;;5019142;28;20041;-68
2021/04/11 11:32:11;;;;;;;1.63;1.20;;;4.20;99.90;;;;;;5015051;28;20033;-69
2021/04/11 11:34:52;;;;;;;3.80;1.80;;;4.10;99.90;;;;;;5016913;28;20030;-68
2021/04/11 11:37:44;;;;;;;2.10;1.52;;;3.90;99.90;;;;;;5014803;28;20115;-68
2021/04/11 11:40:26;;;;;;;2.95;1.45;;;4.00;99.90;;;;;;5010524;28;20034;-68
2021/04/11 11:43:01;;;;;;;1.92;1.58;;;3.90;99.90;;;;;;5014334;28;20028;-67
2021/04/11 11:45:38;;;;;;;1.95;1.40;;;4.00;99.90;;;;;;5014906;28;20029;-68
2021/04/11 11:48:22;;;;;;;3.17;1.60;;;3.90;99.90;;;;;;5009992;28;20041;-68
2021/04/11 11:51:01;;;;;;;2.20;1.50;;;3.90;99.90;;;;;;5014660;28;20096;-66
2021/04/11 11:53:36;;;;;;;2.17;1.30;;;4.00;99.90;;;;;;5017133;28;20025;-67
2021/04/11 11:56:30;;;;;;;1.73;1.48;;;4.10;99.90;;;;;;5019168;28;20043;-67
2021/04/11 11:59:05;;;;;;;3.55;1.70;;;3.90;99.90;;;;;;5033605;28;20037;-67
2021/04/11 12:01:50;;;;;;;4.72;1.30;;;3.90;99.90;;;;;;5015978;28;20083;-67
2021/04/11 12:04:54;;;;;;;2.88;1.60;;;4.00;99.90;;;;;;5016670;28;20057;-68
2021/04/11 12:07:46;;;;;;;1.52;1.17;;;4.00;99.90;;;;;;5008571;28;20870;-69
2021/04/11 12:10:33;;;;;;;3.15;1.40;;;4.10;99.90;;;;;;5015745;28;20405;-67
2021/04/11 12:13:09;;;;;;;1.55;1.15;;;4.10;99.90;;;;;;5015017;28;20029;-67
2021/04/11 12:16:04;;;;;;;1.02;0.93;;;4.30;99.90;;;;;;5011815;28;21448;-67
2021/04/11 12:18:56;;;;;;;1.25;1.13;;;4.40;99.90;;;;;;5014266;28;20053;-66
2021/04/11 12:21:44;;;;;;;1.70;0.98;;;4.40;99.90;;;;;;5005729;28;20049;-67
2021/04/11 12:24:31;;;;;;;2.00;1.10;;;4.40;99.90;;;;;;5012581;28;20041;-67
2021/04/11 12:27:02;;;;;;;1.05;0.90;;;4.50;99.90;;;;;;5015778;28;20049;-67
2021/04/11 12:29:45;;;;;;;0.73;0.73;;;4.40;99.90;;;;;;5014995;28;20064;-67
2021/04/11 12:32:37;;;;;;;1.00;0.60;;;4.40;99.90;;;;;;5013567;28;20034;-67
2021/04/11 12:35:21;;;;;;;1.05;0.80;;;4.40;99.90;;;;;;5016445;28;20488;-67
2021/04/11 12:38:11;;;;;;;0.98;0.93;;;4.40;99.90;;;;;;5015271;28;20056;-67
2021/04/11 12:41:00;;;;;;;1.05;0.63;;;4.30;99.90;;;;;;5010533;28;20591;-67
2021/04/11 12:43:31;;;;;;;0.50;0.50;;;4.30;99.90;;;;;;5015807;28;20129;-67
2021/04/11 12:46:29;;;;;;;2.00;0.70;;;4.30;99.90;;;;;;5013765;28;20033;-67
2021/04/11 12:49:22;;;;;;;0.85;0.70;;;4.40;99.90;;;;;;5013551;28;20500;-67
2021/04/11 12:52:07;;;;;;;0.90;0.75;;;4.40;99.90;;;;;;5015854;28;20446;-66
2021/04/11 12:54:38;;;;;;;0.68;0.60;;;4.40;99.90;;;;;;5009666;28;20030;-67
2021/04/11 12:57:07;;;;;;;0.93;0.50;;;4.40;99.90;;;;;;5011605;28;20042;-68
2021/04/11 12:59:48;;;;;;;0.98;0.63;;;4.50;99.90;;;;;;5013225;28;20121;-66
2021/04/11 13:02:43;;;;;;;0.52;0.52;;;4.50;99.90;;;;;;5012995;28;20025;-67
2021/04/11 13:05:55;;;;;;;1.48;0.68;;;4.50;99.90;;;;;;5008404;28;20048;-67
2021/04/11 13:08:59;;;;;;;1.08;0.60;;;4.50;99.90;;;;;;5011929;28;20034;-67
2021/04/11 13:11:37;;;;;;;0.40;0.40;;;4.50;99.90;;;;;;5013371;28;20622;-66
2021/04/11 13:14:25;;;;;;;1.45;0.60;;;4.50;99.90;;;;;;5014435;28;20025;-67
2021/04/11 13:17:03;;;;;;;0.82;0.60;;;4.50;99.90;;;;;;5013687;28;20022;-67
2021/04/11 13:19:41;;;;;;;1.27;0.80;;;4.60;99.90;;;;;;5015194;28;20040;-67
2021/04/11 13:22:25;;;;;;;1.05;0.73;;;4.60;99.90;;;;;;5016088;28;20041;-67
2021/04/11 13:25:28;;;;;;;0.60;0.57;;;4.60;99.90;;;;;;5012873;28;20177;-67
2021/04/11 13:28:10;;;;;;;0.60;0.60;;;4.60;99.90;;;;;;5013365;28;20035;-68
2021/04/11 13:31:09;;;;;;;0.52;0.50;;;4.60;99.90;;;;;;5017460;28;20040;-67
2021/04/11 13:33:44;;;;;;;2.45;0.60;;;4.70;99.90;;;;;;5014696;28;20507;-67
2021/04/11 13:36:32;;;;;;;0.80;0.73;;;4.60;99.90;;;;;;5015726;28;20494;-67
2021/04/11 13:39:23;;;;;;;0.70;0.50;;;4.70;99.90;;;;;;5009764;28;20117;-67
2021/04/11 13:42:12;;;;;;;1.20;0.75;;;4.80;99.90;;;;;;5013115;28;20021;-67
2021/04/11 13:45:08;;;;;;;1.50;0.50;;;4.90;99.90;;;;;;5011387;28;20065;-67
2021/04/11 13:47:51;;;;;;;1.05;0.70;;;4.80;99.90;;;;;;5014989;28;20030;-67
2021/04/11 13:50:39;;;;;;;1.83;0.90;;;4.80;99.90;;;;;;5014091;28;20160;-67
2021/04/11 13:53:32;;;;;;;0.52;0.50;;;4.60;99.90;;;;;;5013779;28;20454;-66
2021/04/11 13:56:14;;;;;;;1.08;0.80;;;4.60;99.90;;;;;;5011427;28;20342;-66
2021/04/11 13:59:26;;;;;;;1.33;1.08;;;4.60;99.90;;;;;;5012197;28;20033;-67
2021/04/11 14:01:57;;;;;;;0.85;0.70;;;4.70;99.90;;;;;;5010486;28;20030;-66
2021/04/11 14:04:29;;;;;;;1.75;0.70;;;4.80;99.90;;;;;;5007017;28;20037;-67
2021/04/11 14:07:24;;;;;;;0.93;0.82;;;4.90;99.90;;;;;;5012723;28;20025;-64